createdAt,value
2023-02-23T00:01:57.283Z,12.50
2023-02-23T00:04:26.447Z,12.50
2023-02-23T00:06:55.116Z,12.40
2023-02-23T00:09:27.878Z,12.50
2023-02-23T00:11:58.312Z,12.50
2023-02-23T00:14:29.022Z,12.40
2023-02-23T00:16:59.975Z,12.50
2023-02-23T00:19:28.496Z,12.40
2023-02-23T00:21:58.956Z,12.40
2023-02-23T00:24:28.044Z,12.40
2023-02-23T00:26:56.313Z,12.40
2023-02-23T00:29:25.832Z,12.40
2023-02-23T00:31:56.311Z,12.40
2023-02-23T00:34:26.268Z,12.40
2023-02-23T00:36:55.646Z,12.40
2023-02-23T00:39:26.847Z,12.40
2023-02-23T00:41:55.848Z,12.40
2023-02-23T00:44:25.518Z,12.40
2023-02-23T00:46:54.148Z,12.40
2023-02-23T00:49:23.629Z,12.40
2023-02-23T00:51:54.174Z,12.40
2023-02-23T00:54:23.420Z,12.40
2023-02-23T00:56:52.239Z,12.40
2023-02-23T00:59:21.272Z,12.40
2023-02-23T01:01:50.070Z,12.40
2023-02-23T01:04:18.283Z,12.40
2023-02-23T01:06:46.608Z,12.40
2023-02-23T01:09:22.028Z,12.40
2023-02-23T01:11:50.303Z,12.30
2023-02-23T01:14:19.490Z,12.30
2023-02-23T01:16:47.655Z,12.30
2023-02-23T01:19:16.020Z,12.30
2023-02-23T01:21:44.468Z,12.30
2023-02-23T01:24:13.304Z,12.30
2023-02-23T01:26:45.567Z,12.30
2023-02-23T01:29:15.701Z,12.30
2023-02-23T01:31:46.058Z,12.30
2023-02-23T01:34:15.693Z,12.30
2023-02-23T01:36:45.440Z,12.30
2023-02-23T01:39:15.477Z,12.30
2023-02-23T01:41:46.193Z,12.30
2023-02-23T01:44:51.739Z,12.30
2023-02-23T01:47:20.585Z,12.30
2023-02-23T01:49:51.033Z,12.20
2023-02-23T01:52:20.847Z,12.20
2023-02-23T01:54:53.560Z,12.30
2023-02-23T01:57:27.122Z,12.20
2023-02-23T01:59:56.057Z,12.20
2023-02-23T02:02:33.388Z,12.20
2023-02-23T02:05:05.283Z,12.20
2023-02-23T02:07:36.260Z,12.20
2023-02-23T02:10:23.245Z,12.20
2023-02-23T02:12:56.187Z,12.20
2023-02-23T02:15:31.512Z,12.20
2023-02-23T02:18:10.202Z,12.20
2023-02-23T02:21:06.295Z,12.20
2023-02-23T02:24:22.133Z,12.20
2023-02-23T02:27:00.766Z,12.20
2023-02-23T02:30:01.824Z,12.10
2023-02-23T02:33:11.082Z,12.10
2023-02-23T02:36:06.770Z,12.10
2023-02-23T02:38:51.008Z,12.10
2023-02-23T02:41:24.427Z,12.10
2023-02-23T02:43:59.878Z,12.10
2023-02-23T02:46:30.419Z,12.10
2023-02-23T02:49:06.389Z,12.10
2023-02-23T02:51:39.842Z,12.10
2023-02-23T02:54:17.470Z,12.10
2023-02-23T02:56:46.323Z,12.10
2023-02-23T02:59:35.295Z,12.10
2023-02-23T03:02:21.566Z,12.00
2023-02-23T03:05:07.478Z,12.00
2023-02-23T03:07:58.564Z,12.00
2023-02-23T03:10:53.227Z,12.00
2023-02-23T03:13:51.403Z,12.00
2023-02-23T03:16:49.400Z,12.00
2023-02-23T03:19:39.887Z,12.00
2023-02-23T03:22:34.857Z,12.00
2023-02-23T03:25:25.985Z,12.00
2023-02-23T03:28:18.663Z,12.00
2023-02-23T03:31:10.743Z,12.00
2023-02-23T03:34:04.702Z,12.00
2023-02-23T03:36:55.152Z,12.00
2023-02-23T03:39:47.110Z,12.00
2023-02-23T03:42:38.661Z,12.00
2023-02-23T03:45:29.355Z,12.00
2023-02-23T03:48:18.392Z,12.00
2023-02-23T03:51:09.345Z,12.00
2023-02-23T03:54:00.425Z,12.00
2023-02-23T03:56:49.173Z,12.00
2023-02-23T03:59:40.588Z,12.00
2023-02-23T04:02:28.968Z,12.00
2023-02-23T04:05:18.215Z,12.00
2023-02-23T04:08:06.672Z,12.00
2023-02-23T04:10:54.268Z,12.00
2023-02-23T04:13:25.718Z,12.00
2023-02-23T04:15:56.253Z,12.00
2023-02-23T04:18:28.180Z,12.00
2023-02-23T04:20:56.876Z,12.00
2023-02-23T04:23:25.849Z,12.00
2023-02-23T04:25:54.939Z,12.00
2023-02-23T04:28:24.597Z,12.00
2023-02-23T04:30:53.579Z,12.00
2023-02-23T04:33:22.761Z,12.00
2023-02-23T04:35:53.853Z,11.90
2023-02-23T04:38:22.199Z,11.90
2023-02-23T04:40:50.592Z,11.90
2023-02-23T04:43:19.002Z,11.90
2023-02-23T04:45:47.360Z,11.90
2023-02-23T04:48:15.652Z,11.90
2023-02-23T04:50:43.818Z,11.90
2023-02-23T04:53:13.489Z,11.90
2023-02-23T04:55:41.798Z,11.90
2023-02-23T04:58:13.750Z,11.90
2023-02-23T05:00:42.112Z,11.90
2023-02-23T05:03:10.751Z,11.90
2023-02-23T05:05:39.689Z,11.90
2023-02-23T05:08:08.187Z,11.90
2023-02-23T05:10:40.169Z,11.90
2023-02-23T05:13:08.699Z,11.90
2023-02-23T05:15:37.199Z,11.90
2023-02-23T05:18:05.808Z,11.90
2023-02-23T05:20:34.126Z,11.90
2023-02-23T05:23:02.362Z,11.90
2023-02-23T05:25:30.560Z,11.90
2023-02-23T05:28:00.785Z,11.90
2023-02-23T05:30:28.988Z,11.90
2023-02-23T05:32:57.188Z,11.90
2023-02-23T05:35:25.435Z,11.90
2023-02-23T05:37:53.713Z,11.90
2023-02-23T05:40:21.880Z,11.90
2023-02-23T05:42:50.091Z,11.90
2023-02-23T05:45:19.765Z,11.90
2023-02-23T05:47:48.153Z,11.90
2023-02-23T05:50:16.394Z,11.90
2023-02-23T05:52:44.598Z,11.90
2023-02-23T05:55:13.605Z,11.90
2023-02-23T05:57:42.743Z,11.90
2023-02-23T06:00:13.521Z,11.90
2023-02-23T06:02:43.309Z,11.90
2023-02-23T06:05:12.842Z,11.90
2023-02-23T06:07:41.512Z,11.90
2023-02-23T06:10:10.885Z,11.90
2023-02-23T06:12:39.085Z,11.90
2023-02-23T06:15:08.569Z,11.90
2023-02-23T06:17:37.162Z,11.90
2023-02-23T06:20:07.594Z,11.90
2023-02-23T06:22:35.909Z,11.90
2023-02-23T06:25:05.028Z,11.90
2023-02-23T06:27:33.384Z,11.90
2023-02-23T06:30:01.541Z,11.90
2023-02-23T06:32:29.836Z,11.90
2023-02-23T06:34:58.055Z,11.80
2023-02-23T06:37:27.782Z,11.80
2023-02-23T06:39:56.017Z,11.80
2023-02-23T06:42:24.382Z,11.80
2023-02-23T06:44:52.462Z,11.80
2023-02-23T06:47:20.762Z,11.80
2023-02-23T06:49:48.991Z,11.80
2023-02-23T06:52:17.311Z,11.80
2023-02-23T06:54:48.359Z,11.80
2023-02-23T06:57:16.645Z,11.80
2023-02-23T06:59:44.874Z,11.80
2023-02-23T07:02:15.050Z,11.80
2023-02-23T07:04:43.242Z,11.80
2023-02-23T07:07:12.717Z,11.80
2023-02-23T07:09:41.244Z,11.80
2023-02-23T07:12:11.315Z,11.80
2023-02-23T07:14:40.332Z,11.90
2023-02-23T07:17:10.018Z,11.90
2023-02-23T07:19:39.887Z,11.90
2023-02-23T07:22:08.209Z,11.90
2023-02-23T07:24:38.515Z,11.90
2023-02-23T07:27:06.675Z,11.90
2023-02-23T07:29:36.459Z,11.90
2023-02-23T07:32:05.009Z,11.90
2023-02-23T07:34:33.316Z,11.90
2023-02-23T07:37:01.482Z,11.90
2023-02-23T07:39:31.126Z,11.90
2023-02-23T07:41:59.669Z,11.90
2023-02-23T07:44:27.929Z,11.90
2023-02-23T07:46:57.716Z,11.90
2023-02-23T07:49:26.559Z,12.00
2023-02-23T07:51:54.841Z,12.00
2023-02-23T07:54:25.457Z,12.00
2023-02-23T07:56:53.866Z,12.00
2023-02-23T07:59:22.052Z,12.00
2023-02-23T08:01:51.800Z,12.00
2023-02-23T08:04:21.550Z,12.00
2023-02-23T08:06:49.757Z,12.00
2023-02-23T08:09:17.994Z,12.00
2023-02-23T08:11:46.212Z,12.00
2023-02-23T08:14:14.342Z,12.00
2023-02-23T08:16:42.731Z,12.10
2023-02-23T08:19:11.256Z,12.00
2023-02-23T08:21:42.279Z,12.00
2023-02-23T08:24:10.933Z,12.00
2023-02-23T08:26:39.346Z,12.00
2023-02-23T08:29:07.736Z,12.10
2023-02-23T08:31:36.312Z,12.10
2023-02-23T08:34:04.701Z,12.10
2023-02-23T08:36:32.975Z,12.10
2023-02-23T08:39:02.552Z,12.10
2023-02-23T08:41:30.793Z,12.10
2023-02-23T08:43:59.952Z,12.10
2023-02-23T08:46:28.275Z,12.10
2023-02-23T08:48:57.778Z,12.00
2023-02-23T08:51:26.372Z,12.10
2023-02-23T08:53:55.244Z,12.00
2023-02-23T08:56:25.912Z,12.00
2023-02-23T08:58:54.322Z,12.10
2023-02-23T09:01:23.063Z,12.10
2023-02-23T09:03:51.554Z,12.10
2023-02-23T09:06:23.287Z,12.10
2023-02-23T09:08:51.552Z,12.20
2023-02-23T09:11:19.985Z,12.20
2023-02-23T09:13:50.196Z,12.30
2023-02-23T09:16:18.410Z,12.30
2023-02-23T09:18:47.176Z,12.30
2023-02-23T09:21:21.301Z,12.30
2023-02-23T09:23:51.426Z,12.30
2023-02-23T09:26:20.459Z,12.30
2023-02-23T09:28:50.528Z,12.40
2023-02-23T09:31:21.744Z,12.40
2023-02-23T09:33:51.128Z,12.40
2023-02-23T09:36:21.588Z,12.40
2023-02-23T09:38:55.171Z,12.40
2023-02-23T09:41:50.919Z,12.50
2023-02-23T09:44:27.866Z,12.50
2023-02-23T09:47:11.576Z,12.50
2023-02-23T09:49:42.325Z,12.50
2023-02-23T09:52:17.544Z,12.50
2023-02-23T09:54:46.829Z,12.50
2023-02-23T09:57:19.806Z,12.50
2023-02-23T09:59:49.520Z,12.60
2023-02-23T10:02:25.622Z,12.60
2023-02-23T10:04:58.318Z,12.60
2023-02-23T10:07:34.093Z,12.60
2023-02-23T10:10:13.943Z,12.60
2023-02-23T10:12:51.821Z,12.60
2023-02-23T10:15:33.644Z,12.60
2023-02-23T10:18:13.379Z,12.60
2023-02-23T10:20:50.980Z,12.60
2023-02-23T10:23:27.759Z,12.60
2023-02-23T10:26:00.766Z,12.60
2023-02-23T10:28:34.393Z,12.60
2023-02-23T10:31:08.971Z,12.60
2023-02-23T10:33:42.503Z,12.60
2023-02-23T10:36:19.282Z,12.60
2023-02-23T10:38:47.835Z,12.60
2023-02-23T10:41:15.963Z,12.50
2023-02-23T10:43:44.254Z,12.50
2023-02-23T10:46:22.261Z,12.60
2023-02-23T10:48:52.156Z,12.60
2023-02-23T10:51:26.195Z,12.60
2023-02-23T10:53:54.602Z,12.60
2023-02-23T10:56:25.047Z,12.60
2023-02-23T10:58:55.743Z,12.70
2023-02-23T11:01:41.924Z,12.70
2023-02-23T11:04:20.815Z,12.70
2023-02-23T11:06:50.715Z,12.70
2023-02-23T11:09:41.859Z,12.80
2023-02-23T11:12:22.940Z,12.80
2023-02-23T11:14:52.869Z,12.80
2023-02-23T11:17:30.137Z,12.80
2023-02-23T11:20:03.583Z,12.80
2023-02-23T11:22:35.036Z,12.80
2023-02-23T11:25:14.142Z,12.90
2023-02-23T11:27:53.947Z,12.80
2023-02-23T11:30:25.391Z,12.70
2023-02-23T11:32:57.892Z,12.80
2023-02-23T11:35:32.106Z,12.80
2023-02-23T11:38:00.727Z,12.80
2023-02-23T11:40:31.518Z,12.80
2023-02-23T11:43:09.941Z,12.90
2023-02-23T11:45:46.716Z,13.00
2023-02-23T11:48:26.858Z,13.00
2023-02-23T11:50:56.806Z,13.00
2023-02-23T11:53:31.805Z,13.00
2023-02-23T11:56:08.073Z,12.90
2023-02-23T11:58:40.513Z,12.90
2023-02-23T12:01:12.468Z,12.90
2023-02-23T12:03:48.954Z,12.90
2023-02-23T12:06:30.653Z,13.00
2023-02-23T12:09:06.112Z,13.10
2023-02-23T12:11:39.633Z,13.10
2023-02-23T12:14:13.608Z,13.10
2023-02-23T12:16:45.066Z,13.10
2023-02-23T12:19:26.837Z,13.10
2023-02-23T12:22:02.062Z,13.10
2023-02-23T12:24:44.683Z,13.20
2023-02-23T12:27:16.779Z,13.10
2023-02-23T12:30:06.279Z,13.10
2023-02-23T12:32:46.867Z,13.10
2023-02-23T12:35:20.848Z,13.10
2023-02-23T12:37:53.878Z,13.20
2023-02-23T12:40:28.112Z,13.10
2023-02-23T12:43:03.128Z,13.10
2023-02-23T12:45:38.936Z,13.20
2023-02-23T12:48:20.107Z,13.20
2023-02-23T12:50:54.385Z,13.20
2023-02-23T12:53:28.532Z,13.30
2023-02-23T12:56:08.221Z,13.30
2023-02-23T12:58:42.256Z,13.30
2023-02-23T13:01:14.712Z,13.30
2023-02-23T13:04:09.362Z,13.30
2023-02-23T13:06:49.373Z,13.40
2023-02-23T13:09:41.968Z,13.50
2023-02-23T13:12:42.901Z,13.40
2023-02-23T13:15:22.245Z,13.50
2023-02-23T13:17:56.843Z,13.50
2023-02-23T13:20:33.703Z,13.60
2023-02-23T13:23:13.570Z,13.70
2023-02-23T13:25:50.949Z,13.70
2023-02-23T13:28:23.036Z,13.60
2023-02-23T13:30:51.281Z,13.60
2023-02-23T13:33:41.951Z,13.60
2023-02-23T13:36:12.806Z,13.70
2023-02-23T13:38:48.520Z,13.70
2023-02-23T13:41:32.040Z,13.70
2023-02-23T13:44:08.609Z,13.70
2023-02-23T13:46:45.354Z,13.70
2023-02-23T13:49:28.600Z,13.70
2023-02-23T13:52:00.364Z,13.70
2023-02-23T13:54:35.817Z,13.70
2023-02-23T13:57:06.676Z,13.70
2023-02-23T13:59:42.937Z,13.70
2023-02-23T14:02:33.368Z,13.80
2023-02-23T14:05:07.595Z,13.80
2023-02-23T14:07:43.568Z,13.80
2023-02-23T14:10:19.696Z,13.70
2023-02-23T14:13:24.769Z,13.70
2023-02-23T14:16:11.780Z,13.70
2023-02-23T14:18:55.239Z,13.70
2023-02-23T14:21:31.039Z,13.70
2023-02-23T14:24:17.534Z,13.80
2023-02-23T14:27:03.669Z,13.80
2023-02-23T14:29:33.046Z,13.80
2023-02-23T14:32:05.986Z,13.80
2023-02-23T14:34:57.235Z,13.80
2023-02-23T14:37:32.073Z,13.80
2023-02-23T14:40:08.825Z,13.70
2023-02-23T14:42:39.962Z,13.80
2023-02-23T14:45:20.078Z,13.80
2023-02-23T14:47:51.730Z,13.90
2023-02-23T14:50:27.735Z,13.90
2023-02-23T14:52:57.367Z,13.90
2023-02-23T14:55:29.248Z,13.90
2023-02-23T14:57:59.699Z,14.00
2023-02-23T15:00:32.525Z,14.00
2023-02-23T15:03:03.016Z,13.90
2023-02-23T15:05:34.076Z,13.90
2023-02-23T15:08:04.936Z,13.80
2023-02-23T15:10:36.540Z,13.90
2023-02-23T15:13:13.125Z,13.90
2023-02-23T15:15:46.055Z,13.90
2023-02-23T15:18:23.410Z,13.90
2023-02-23T15:20:52.065Z,13.80
2023-02-23T15:23:21.994Z,13.70
2023-02-23T15:25:51.326Z,13.70
2023-02-23T15:28:27.986Z,13.70
2023-02-23T15:30:58.222Z,13.70
2023-02-23T15:33:29.478Z,13.80
2023-02-23T15:36:09.808Z,13.80
2023-02-23T15:38:44.552Z,13.80
2023-02-23T15:41:30.380Z,13.80
2023-02-23T15:44:09.975Z,13.80
2023-02-23T15:46:39.461Z,13.70
2023-02-23T15:49:10.758Z,13.70
2023-02-23T15:51:44.569Z,13.70
2023-02-23T15:54:20.318Z,13.70
2023-02-23T15:56:51.129Z,13.60
2023-02-23T15:59:28.661Z,13.70
2023-02-23T16:01:59.771Z,13.60
2023-02-23T16:04:32.454Z,13.60
2023-02-23T16:07:17.958Z,13.60
2023-02-23T16:09:52.865Z,13.60
2023-02-23T16:12:24.906Z,13.50
2023-02-23T16:14:57.099Z,13.50
2023-02-23T16:17:29.770Z,13.50
2023-02-23T16:20:11.180Z,13.50
2023-02-23T16:22:40.914Z,13.50
2023-02-23T16:25:13.285Z,13.60
2023-02-23T16:27:43.568Z,13.60
2023-02-23T16:30:23.521Z,13.60
2023-02-23T16:33:04.905Z,13.60
2023-02-23T16:35:38.368Z,13.60
2023-02-23T16:38:13.741Z,13.60
2023-02-23T16:40:42.607Z,13.60
2023-02-23T16:43:11.533Z,13.60
2023-02-23T16:45:43.401Z,13.60
2023-02-23T16:48:14.619Z,13.50
2023-02-23T16:50:42.887Z,13.50
2023-02-23T16:53:12.423Z,13.50
2023-02-23T16:55:42.619Z,13.40
2023-02-23T16:58:17.041Z,13.40
2023-02-23T17:00:46.768Z,13.40
2023-02-23T17:03:20.363Z,13.30
2023-02-23T17:05:48.922Z,13.30
2023-02-23T17:08:17.111Z,13.30
2023-02-23T17:10:48.403Z,13.30
2023-02-23T17:13:18.852Z,13.30
2023-02-23T17:15:51.784Z,13.30
2023-02-23T17:18:20.742Z,13.30
2023-02-23T17:20:49.004Z,13.20
2023-02-23T17:23:17.674Z,13.20
2023-02-23T17:25:45.985Z,13.20
2023-02-23T17:28:14.553Z,13.20
2023-02-23T17:30:43.897Z,13.20
2023-02-23T17:33:14.139Z,13.20
2023-02-23T17:35:42.864Z,13.30
2023-02-23T17:38:11.343Z,13.30
2023-02-23T17:40:39.681Z,13.30
2023-02-23T17:43:08.697Z,13.30
2023-02-23T17:45:37.257Z,13.30
2023-02-23T17:48:05.769Z,13.20
2023-02-23T17:50:35.274Z,13.30
2023-02-23T17:53:03.454Z,13.30
2023-02-23T17:55:31.603Z,13.20
2023-02-23T17:57:59.783Z,13.20
2023-02-23T18:00:28.645Z,13.20
2023-02-23T18:02:57.784Z,13.20
2023-02-23T18:05:26.091Z,13.20
2023-02-23T18:07:55.597Z,13.20
2023-02-23T18:10:25.499Z,13.20
2023-02-23T18:12:54.326Z,13.20
2023-02-23T18:15:22.940Z,13.20
2023-02-23T18:17:54.632Z,13.20
2023-02-23T18:20:23.093Z,13.20
2023-02-23T18:22:51.299Z,13.10
2023-02-23T18:25:27.537Z,13.10
2023-02-23T18:27:56.439Z,13.10
2023-02-23T18:30:27.274Z,13.10
2023-02-23T18:33:00.483Z,13.00
2023-02-23T18:35:28.926Z,13.10
2023-02-23T18:37:57.108Z,13.10
2023-02-23T18:40:27.459Z,13.10
2023-02-23T18:42:57.486Z,13.10
2023-02-23T18:45:25.658Z,13.00
2023-02-23T18:47:54.002Z,12.90
2023-02-23T18:50:22.370Z,12.90
2023-02-23T18:52:51.455Z,12.90
2023-02-23T18:55:22.252Z,12.90
2023-02-23T18:57:53.101Z,12.90
2023-02-23T19:00:21.983Z,12.90
2023-02-23T19:02:50.265Z,12.90
2023-02-23T19:05:21.687Z,12.90
2023-02-23T19:07:50.331Z,12.90
2023-02-23T19:10:19.501Z,12.90
2023-02-23T19:12:47.723Z,12.90
2023-02-23T19:15:17.766Z,12.90
2023-02-23T19:17:47.416Z,12.90
2023-02-23T19:20:15.906Z,12.80
2023-02-23T19:22:44.067Z,12.80
2023-02-23T19:25:14.767Z,12.80
2023-02-23T19:27:43.516Z,12.80
2023-02-23T19:30:14.446Z,12.80
2023-02-23T19:32:45.007Z,12.80
2023-02-23T19:35:15.823Z,12.80
2023-02-23T19:37:48.626Z,12.80
2023-02-23T19:40:21.881Z,12.80
2023-02-23T19:42:50.562Z,12.80
2023-02-23T19:45:19.766Z,12.80
2023-02-23T19:47:52.001Z,12.80
2023-02-23T19:50:20.340Z,12.80
2023-02-23T19:52:49.305Z,12.80
2023-02-23T19:55:17.563Z,12.80
2023-02-23T19:57:45.782Z,12.80
2023-02-23T20:00:15.047Z,12.80
2023-02-23T20:02:47.646Z,12.80
2023-02-23T20:05:18.233Z,12.80
2023-02-23T20:07:46.469Z,12.80
2023-02-23T20:10:16.323Z,12.80
2023-02-23T20:12:45.049Z,12.80
2023-02-23T20:15:14.975Z,12.80
2023-02-23T20:17:43.335Z,12.70
2023-02-23T20:20:12.649Z,12.70
2023-02-23T20:22:43.320Z,12.70
2023-02-23T20:25:15.680Z,12.70
2023-02-23T20:27:45.428Z,12.70
2023-02-23T20:30:14.766Z,12.70
2023-02-23T20:32:43.147Z,12.70
2023-02-23T20:35:13.103Z,12.70
2023-02-23T20:37:43.076Z,12.70
2023-02-23T20:40:17.618Z,12.70
2023-02-23T20:42:47.875Z,12.70
2023-02-23T20:45:17.608Z,12.60
2023-02-23T20:47:47.044Z,12.60
2023-02-23T20:50:15.792Z,12.60
2023-02-23T20:52:46.989Z,12.60
2023-02-23T20:55:19.342Z,12.60
2023-02-23T20:57:48.468Z,12.60
2023-02-23T21:00:33.114Z,12.50
2023-02-23T21:03:02.420Z,12.50
2023-02-23T21:05:32.683Z,12.50
2023-02-23T21:08:05.395Z,12.50
2023-02-23T21:10:35.935Z,12.50
2023-02-23T21:13:04.848Z,12.50
2023-02-23T21:15:35.063Z,12.50
2023-02-23T21:18:03.323Z,12.50
2023-02-23T21:20:31.586Z,12.40
2023-02-23T21:23:00.456Z,12.40
2023-02-23T21:25:30.259Z,12.40
2023-02-23T21:28:01.836Z,12.40
2023-02-23T21:30:30.702Z,12.40
2023-02-23T21:33:00.274Z,12.40
2023-02-23T21:35:28.699Z,12.30
2023-02-23T21:37:57.182Z,12.30
2023-02-23T21:40:25.389Z,12.30
2023-02-23T21:42:55.014Z,12.30
2023-02-23T21:45:23.310Z,12.20
2023-02-23T21:47:51.507Z,12.20
2023-02-23T21:50:22.080Z,12.20
2023-02-23T21:52:54.023Z,12.20
2023-02-23T21:55:22.677Z,12.10
2023-02-23T21:57:52.132Z,12.10
2023-02-23T22:00:22.973Z,12.00
2023-02-23T22:02:52.370Z,12.00
2023-02-23T22:05:20.981Z,12.00
2023-02-23T22:07:50.546Z,12.00
2023-02-23T22:10:19.421Z,11.90
2023-02-23T22:12:47.847Z,11.90
2023-02-23T22:15:16.945Z,11.90
2023-02-23T22:17:46.551Z,11.80
2023-02-23T22:20:20.086Z,11.80
2023-02-23T22:22:50.441Z,11.80
2023-02-23T22:25:20.419Z,11.80
2023-02-23T22:27:49.021Z,11.70
2023-02-23T22:30:17.402Z,11.70
2023-02-23T22:32:47.750Z,11.70
2023-02-23T22:35:16.174Z,11.60
2023-02-23T22:37:44.383Z,11.60
2023-02-23T22:40:15.346Z,11.60
2023-02-23T22:42:48.176Z,11.60
2023-02-23T22:45:17.397Z,11.60
2023-02-23T22:47:47.063Z,11.50
2023-02-23T22:50:17.966Z,11.50
2023-02-23T22:52:46.824Z,11.50
2023-02-23T22:55:14.986Z,11.50
2023-02-23T22:57:44.033Z,11.50
2023-02-23T23:00:15.666Z,11.40
2023-02-23T23:02:44.057Z,11.40
2023-02-23T23:05:14.451Z,11.40
2023-02-23T23:07:43.303Z,11.40
2023-02-23T23:10:12.796Z,11.40
2023-02-23T23:12:41.456Z,11.40
2023-02-23T23:15:14.920Z,11.40
2023-02-23T23:17:48.511Z,11.40
2023-02-23T23:20:23.237Z,11.40
2023-02-23T23:22:51.424Z,11.40
2023-02-23T23:25:23.046Z,11.40
2023-02-23T23:27:55.542Z,11.30
2023-02-23T23:30:26.199Z,11.30
2023-02-23T23:32:54.749Z,11.30
2023-02-23T23:35:25.967Z,11.30
2023-02-23T23:37:54.180Z,11.30
2023-02-23T23:40:24.579Z,11.30
2023-02-23T23:42:55.048Z,11.30
2023-02-23T23:45:26.017Z,11.30
2023-02-23T23:47:54.332Z,11.30
2023-02-23T23:50:27.469Z,11.30
2023-02-23T23:52:57.118Z,11.20
2023-02-23T23:55:31.422Z,11.20
2023-02-23T23:58:00.356Z,11.20
